Time;durP1;ratioP1;P1;durP2;ratioP2;P2;SDS_P1;SDS_P2;PMS_P1;PMS_P2;Temp;Humidity;BMP_temperature;BMP_pressure;BME280_temperature;BME280_humidity;BME280_pressure;Samples;Min_cycle;Max_cycle;Signal;HPM_P1;HPM_P2
2022/07/29 00:00:11;;;;;;;;;;;16.10;99.90;;;;;;5074046;28;20268;-72
2022/07/29 00:02:36;;;;;;;;;;;16.10;99.90;;;;;;5075795;28;20349;-72
2022/07/29 00:05:02;;;;;;;;;;;16.20;99.90;;;;;;5075797;28;20403;-71
2022/07/29 00:07:28;;;;;;;;;;;16.30;99.90;;;;;;5076142;28;24157;-72
2022/07/29 00:09:53;;;;;;;;;;;16.30;99.90;;;;;;5075812;28;19908;-73
2022/07/29 00:12:20;;;;;;;;;;;16.20;99.90;;;;;;5058270;28;19904;-72
2022/07/29 00:14:45;;;;;;;;;;;16.20;99.90;;;;;;5075619;28;19904;-72
2022/07/29 00:17:11;;;;;;;;;;;16.10;99.90;;;;;;5076429;28;20325;-72
2022/07/29 00:19:36;;;;;;;;;;;16.00;99.90;;;;;;5076048;28;19950;-72
2022/07/29 00:22:02;;;;;;;;;;;16.10;99.90;;;;;;5076003;28;19957;-72
2022/07/29 00:24:27;;;;;;;;;;;16.10;99.90;;;;;;5075645;28;19955;-72
2022/07/29 00:26:53;;;;;;;;;;;16.10;99.90;;;;;;5075330;28;20296;-72
2022/07/29 00:29:18;;;;;;;;;;;16.20;99.90;;;;;;5076151;28;20349;-72
2022/07/29 00:31:44;;;;;;;;;;;16.20;99.90;;;;;;5075481;28;20276;-72
2022/07/29 00:35:43;;;;;;;;;;;16.20;99.90;;;;;;5075402;28;19912;-72
2022/07/29 00:36:55;;;;;;;;;;;16.30;99.90;;;;;;5075410;28;19927;-72
2022/07/29 00:39:21;;;;;;;;;;;16.30;99.90;;;;;;5075524;28;24132;-72
2022/07/29 00:41:46;;;;;;;;;;;16.40;99.90;;;;;;5057895;28;19904;-72
2022/07/29 00:44:12;;;;;;;;;;;16.50;99.90;;;;;;5076042;28;19983;-71
2022/07/29 00:46:37;;;;;;;;;;;16.50;99.90;;;;;;5075760;28;20345;-72
2022/07/29 00:49:03;;;;;;;;;;;16.50;99.90;;;;;;5075939;28;20360;-72
2022/07/29 00:51:29;;;;;;;;;;;16.50;99.90;;;;;;5075615;28;19912;-72
2022/07/29 00:53:55;;;;;;;;;;;16.60;99.90;;;;;;5076635;28;19905;-72
2022/07/29 00:56:21;;;;;;;;;;;16.60;99.90;;;;;;5075766;28;20341;-71
2022/07/29 00:58:47;;;;;;;;;;;16.70;99.90;;;;;;5058051;28;19911;-72
2022/07/29 01:01:13;;;;;;;;;;;16.70;99.90;;;;;;5075955;28;20386;-70
2022/07/29 01:03:39;;;;;;;;;;;16.80;99.90;;;;;;5085102;28;19946;-71
2022/07/29 01:06:04;;;;;;;;;;;16.80;99.90;;;;;;5095666;28;19970;-71
2022/07/29 01:08:31;;;;;;;;;;;16.80;99.90;;;;;;5077676;28;19908;-71
2022/07/29 01:10:56;;;;;;;;;;;16.80;99.90;;;;;;5094038;28;19915;-71
2022/07/29 01:13:22;;;;;;;;;;;16.70;99.90;;;;;;5095753;28;19904;-71
2022/07/29 01:15:51;;;;;;;;;;;16.80;99.90;;;;;;5094575;28;19957;-71
2022/07/29 01:18:20;;;;;;;;;;;16.80;99.90;;;;;;5095572;28;19904;-70
2022/07/29 01:20:54;;;;;;;;;;;16.80;99.90;;;;;;5095656;28;20310;-71
2022/07/29 01:23:38;;;;;;;;;;;16.70;99.90;;;;;;5094603;28;19904;-70
2022/07/29 01:26:16;;;;;;;;;;;16.70;99.90;;;;;;5095338;28;19942;-71
2022/07/29 01:28:54;;;;;;;;;;;16.70;99.90;;;;;;5095465;28;19911;-70
2022/07/29 01:31:25;;;;;;;;;;;16.60;99.90;;;;;;5090776;28;20383;-71
2022/07/29 01:34:00;;;;;;;;;;;16.70;99.90;;;;;;5095442;28;20004;-70
2022/07/29 01:36:34;;;;;;;;;;;16.60;99.90;;;;;;5095126;28;19904;-70
2022/07/29 01:39:11;;;;;;;;;;;16.60;99.90;;;;;;5094734;28;19904;-71
2022/07/29 01:41:38;;;;;;;;;;;16.50;99.90;;;;;;5094681;28;19904;-70
2022/07/29 01:44:10;;;;;;;;;;;16.40;99.90;;;;;;5094566;28;20360;-71
2022/07/29 01:46:38;;;;;;;;;;;16.30;99.90;;;;;;5094637;28;19903;-70
2022/07/29 01:49:08;;;;;;;;;;;16.30;99.90;;;;;;5095235;28;19907;-70
2022/07/29 01:51:47;;;;;;;;;;;16.30;99.90;;;;;;5095280;28;19912;-70
2022/07/29 01:54:16;;;;;;;;;;;16.30;99.90;;;;;;5095262;28;19904;-71
2022/07/29 01:56:43;;;;;;;;;;;16.30;99.90;;;;;;5094781;28;19949;-71
2022/07/29 01:59:09;;;;;;;;;;;16.20;99.90;;;;;;5076696;28;20265;-70
2022/07/29 02:01:35;;;;;;;;;;;16.20;99.90;;;;;;5095008;28;19904;-70
2022/07/29 02:04:06;;;;;;;;;;;16.20;99.90;;;;;;5094479;28;19904;-71
2022/07/29 02:06:33;;;;;;;;;;;16.10;99.90;;;;;;5094747;28;19969;-70
2022/07/29 02:08:59;;;;;;;;;;;16.10;99.90;;;;;;5094142;28;20417;-70
2022/07/29 02:11:25;;;;;;;;;;;16.00;99.90;;;;;;5094218;28;25142;-70
2022/07/29 02:13:52;;;;;;;;;;;16.00;99.90;;;;;;5094653;28;19986;-70
2022/07/29 02:16:18;;;;;;;;;;;16.00;99.90;;;;;;5076381;28;20340;-70
2022/07/29 02:18:45;;;;;;;;;;;16.00;99.90;;;;;;5094667;28;19904;-70
2022/07/29 02:21:12;;;;;;;;;;;16.00;99.90;;;;;;5094776;28;19904;-70
2022/07/29 02:23:38;;;;;;;;;;;16.00;99.90;;;;;;5094057;28;19911;-70
2022/07/29 02:26:06;;;;;;;;;;;16.10;99.90;;;;;;5094474;28;19926;-70
2022/07/29 02:28:32;;;;;;;;;;;16.20;99.90;;;;;;5095017;28;19911;-69
2022/07/29 02:31:00;;;;;;;;;;;16.20;99.90;;;;;;5094404;28;20349;-70
2022/07/29 02:33:26;;;;;;;;;;;16.20;99.90;;;;;;5094685;28;19969;-70
2022/07/29 02:35:52;;;;;;;;;;;16.10;99.90;;;;;;5094300;28;19911;-70
2022/07/29 02:41:03;;;;;;;;;;;16.00;99.90;;;;;;5094651;28;20374;-70
2022/07/29 02:43:30;;;;;;;;;;;15.90;99.90;;;;;;5094567;28;20319;-71
2022/07/29 02:45:56;;;;;;;;;;;15.90;99.90;;;;;;5094167;28;20332;-70
2022/07/29 02:48:24;;;;;;;;;;;15.90;99.90;;;;;;5094576;28;19911;-70
2022/07/29 02:50:51;;;;;;;;;;;16.00;99.90;;;;;;5094281;28;20333;-70
2022/07/29 02:53:22;;;;;;;;;;;16.00;99.90;;;;;;5094720;28;19983;-70
2022/07/29 02:55:53;;;;;;;;;;;16.00;99.90;;;;;;5075986;28;19943;-70
2022/07/29 02:58:28;;;;;;;;;;;16.00;99.90;;;;;;5094116;28;19908;-70
2022/07/29 03:00:58;;;;;;;;;;;15.90;99.90;;;;;;5094383;28;19908;-71
2022/07/29 03:03:25;;;;;;;;;;;15.80;99.90;;;;;;5094024;28;19912;-71
2022/07/29 03:05:54;;;;;;;;;;;15.70;99.90;;;;;;5093885;28;19919;-71
2022/07/29 03:08:20;;;;;;;;;;;15.70;99.90;;;;;;5094490;28;19947;-71
2022/07/29 03:10:46;;;;;;;;;;;15.60;99.90;;;;;;5093883;28;19914;-71
2022/07/29 03:13:12;;;;;;;;;;;15.50;99.90;;;;;;5093940;28;20268;-71
2022/07/29 03:15:38;;;;;;;;;;;15.50;99.90;;;;;;5093961;28;19904;-71
2022/07/29 03:18:05;;;;;;;;;;;15.40;99.90;;;;;;5075826;28;19907;-71
2022/07/29 03:20:30;;;;;;;;;;;15.40;99.90;;;;;;5094141;28;19910;-71
2022/07/29 03:22:56;;;;;;;;;;;15.50;99.90;;;;;;5093802;28;19904;-71
2022/07/29 03:25:21;;;;;;;;;;;15.50;99.90;;;;;;5093894;28;19911;-71
2022/07/29 03:27:47;;;;;;;;;;;15.60;99.90;;;;;;5075695;28;19904;-71
2022/07/29 03:30:13;;;;;;;;;;;15.60;99.90;;;;;;5093681;28;19916;-71
2022/07/29 03:32:39;;;;;;;;;;;15.60;99.90;;;;;;5093747;28;19970;-71
2022/07/29 03:35:05;;;;;;;;;;;15.60;99.90;;;;;;5097882;28;20352;-71
2022/07/29 03:37:31;;;;;;;;;;;15.60;99.90;;;;;;5097763;28;19906;-71
2022/07/29 03:39:57;;;;;;;;;;;15.60;99.90;;;;;;5098073;28;19904;-71
2022/07/29 03:42:30;;;;;;;;;;;15.40;99.90;;;;;;5097734;28;19953;-71
2022/07/29 03:44:56;;;;;;;;;;;15.30;99.90;;;;;;5098002;28;20045;-71
2022/07/29 03:47:25;;;;;;;;;;;15.20;99.90;;;;;;5097528;28;19911;-71
2022/07/29 03:49:53;;;;;;;;;;;15.00;99.90;;;;;;5097581;28;19908;-71
2022/07/29 03:52:19;;;;;;;;;;;14.80;99.90;;;;;;5079250;28;19908;-71
2022/07/29 03:54:45;;;;;;;;;;;14.70;99.90;;;;;;5097423;28;19927;-71
2022/07/29 03:57:11;;;;;;;;;;;14.50;99.90;;;;;;5097739;28;20292;-72
2022/07/29 03:59:37;;;;;;;;;;;14.40;99.90;;;;;;5097390;28;19908;-72
2022/07/29 04:02:08;;;;;;;;;;;14.40;99.90;;;;;;5097573;28;19955;-71
2022/07/29 04:04:34;;;;;;;;;;;14.40;99.90;;;;;;5097488;28;19920;-71
2022/07/29 04:07:00;;;;;;;;;;;14.40;99.90;;;;;;5079009;28;19904;-71
2022/07/29 04:09:25;;;;;;;;;;;14.50;99.90;;;;;;5097143;28;19995;-71
2022/07/29 04:11:51;;;;;;;;;;;14.60;99.90;;;;;;5078914;28;19930;-77
2022/07/29 04:14:17;;;;;;;;;;;14.70;99.90;;;;;;5097420;28;19904;-71
2022/07/29 04:16:42;;;;;;;;;;;14.70;99.90;;;;;;5096986;28;19991;-71
2022/07/29 04:19:08;;;;;;;;;;;14.80;99.90;;;;;;5097004;28;20010;-70
2022/07/29 04:21:37;;;;;;;;;;;14.80;99.90;;;;;;5097261;28;19998;-71
2022/07/29 04:24:02;;;;;;;;;;;14.90;99.90;;;;;;5096910;28;20348;-71
2022/07/29 04:26:28;;;;;;;;;;;14.90;99.90;;;;;;5096794;28;19904;-71
2022/07/29 04:28:53;;;;;;;;;;;15.00;99.90;;;;;;5096819;28;19915;-71
2022/07/29 04:31:19;;;;;;;;;;;15.10;99.90;;;;;;5096702;28;20350;-71
2022/07/29 04:33:44;;;;;;;;;;;15.10;99.90;;;;;;5096708;28;19904;-71
2022/07/29 04:36:10;;;;;;;;;;;15.00;99.90;;;;;;5096863;28;19991;-71
2022/07/29 04:38:36;;;;;;;;;;;15.00;99.90;;;;;;5096983;28;19946;-71
2022/07/29 04:41:02;;;;;;;;;;;15.00;99.90;;;;;;5078788;28;19904;-71
2022/07/29 04:43:27;;;;;;;;;;;15.00;99.90;;;;;;5096588;28;19904;-71
2022/07/29 04:45:53;;;;;;;;;;;14.90;99.90;;;;;;5095751;28;19958;-71
2022/07/29 04:48:18;;;;;;;;;;;14.90;99.90;;;;;;5078606;28;20348;-72
2022/07/29 04:50:44;;;;;;;;;;;14.90;99.90;;;;;;5096599;28;19915;-71
2022/07/29 04:53:09;;;;;;;;;;;14.90;99.90;;;;;;5096368;28;19911;-71
2022/07/29 04:55:36;;;;;;;;;;;14.90;99.90;;;;;;5096289;28;19911;-71
2022/07/29 04:58:01;;;;;;;;;;;15.00;99.90;;;;;;5096248;28;19949;-71
2022/07/29 05:00:27;;;;;;;;;;;15.00;99.90;;;;;;5096800;28;19908;-71
2022/07/29 05:02:52;;;;;;;;;;;15.10;99.90;;;;;;5096161;28;19903;-71
2022/07/29 05:05:18;;;;;;;;;;;15.10;99.90;;;;;;5077776;28;20007;-72
2022/07/29 05:07:43;;;;;;;;;;;15.20;99.90;;;;;;5096612;28;19912;-71
2022/07/29 05:10:09;;;;;;;;;;;15.20;99.90;;;;;;5096269;28;20314;-71
2022/07/29 05:12:35;;;;;;;;;;;15.20;99.90;;;;;;5096565;28;20241;-71
2022/07/29 05:15:00;;;;;;;;;;;15.10;99.90;;;;;;5096139;28;20356;-72
2022/07/29 05:17:26;;;;;;;;;;;15.10;99.90;;;;;;5094096;28;19905;-71
2022/07/29 05:19:52;;;;;;;;;;;15.10;99.90;;;;;;5094731;28;19953;-71
2022/07/29 05:22:18;;;;;;;;;;;15.10;99.90;;;;;;5095672;28;19926;-71
2022/07/29 05:24:43;;;;;;;;;;;15.10;99.90;;;;;;5094281;28;19915;-71
2022/07/29 05:27:09;;;;;;;;;;;15.10;99.90;;;;;;5095720;28;19904;-72
2022/07/29 05:29:35;;;;;;;;;;;15.10;99.90;;;;;;5095932;28;19904;-71
2022/07/29 05:32:00;;;;;;;;;;;15.10;99.90;;;;;;5096071;28;19908;-71
2022/07/29 05:34:26;;;;;;;;;;;15.20;99.90;;;;;;5077427;28;19910;-71
2022/07/29 05:36:51;;;;;;;;;;;15.20;99.90;;;;;;5077589;28;20002;-71
2022/07/29 05:39:17;;;;;;;;;;;15.30;99.90;;;;;;5095442;28;19904;-71
2022/07/29 05:41:42;;;;;;;;;;;15.30;99.90;;;;;;5095713;28;20329;-71
2022/07/29 05:44:08;;;;;;;;;;;15.40;99.90;;;;;;5095357;28;19904;-71
2022/07/29 05:46:33;;;;;;;;;;;15.50;99.90;;;;;;5094959;28;19911;-71
2022/07/29 05:48:59;;;;;;;;;;;15.60;99.90;;;;;;5095215;28;19954;-71
2022/07/29 05:51:24;;;;;;;;;;;15.80;99.90;;;;;;5094982;28;19947;-71
2022/07/29 05:53:50;;;;;;;;;;;15.90;99.90;;;;;;5094963;28;19947;-71
2022/07/29 05:56:15;;;;;;;;;;;16.00;99.90;;;;;;5094480;28;19911;-71
2022/07/29 05:58:41;;;;;;;;;;;16.10;99.90;;;;;;5094475;28;19904;-71
2022/07/29 06:01:06;;;;;;;;;;;16.10;99.90;;;;;;5095260;28;20314;-71
2022/07/29 06:03:32;;;;;;;;;;;16.20;99.90;;;;;;5076846;28;19908;-71
2022/07/29 06:05:57;;;;;;;;;;;16.30;99.90;;;;;;5094824;28;19912;-72
2022/07/29 06:08:23;;;;;;;;;;;16.40;99.90;;;;;;5095194;28;19907;-72
2022/07/29 06:10:48;;;;;;;;;;;16.40;99.90;;;;;;5094749;28;19908;-71
2022/07/29 06:13:15;;;;;;;;;;;16.40;99.90;;;;;;5094818;28;19903;-71
2022/07/29 06:15:41;;;;;;;;;;;16.50;99.90;;;;;;5094707;28;19904;-71
2022/07/29 06:18:09;;;;;;;;;;;16.50;99.90;;;;;;5094691;28;19904;-71
2022/07/29 06:20:34;;;;;;;;;;;16.50;99.90;;;;;;5094692;28;19930;-71
2022/07/29 06:23:00;;;;;;;;;;;16.50;99.90;;;;;;5094622;28;20376;-71
2022/07/29 06:25:25;;;;;;;;;;;16.50;99.90;;;;;;5094825;28;19904;-71
2022/07/29 06:27:52;;;;;;;;;;;16.50;99.90;;;;;;5095166;28;19910;-71
2022/07/29 06:30:17;;;;;;;;;;;16.50;99.90;;;;;;5094444;28;19969;-71
2022/07/29 06:32:43;;;;;;;;;;;16.50;99.90;;;;;;5094481;28;19904;-71
2022/07/29 06:35:08;;;;;;;;;;;16.60;99.90;;;;;;5076244;28;19939;-71
2022/07/29 06:37:34;;;;;;;;;;;16.60;99.90;;;;;;5094396;28;19937;-71
2022/07/29 06:42:44;;;;;;;;;;;16.70;99.90;;;;;;5094429;28;19971;-71
2022/07/29 06:45:10;;;;;;;;;;;16.80;99.90;;;;;;5094247;28;19908;-71
2022/07/29 06:47:36;;;;;;;;;;;16.80;99.90;;;;;;5094245;28;19904;-71
2022/07/29 06:50:02;;;;;;;;;;;16.90;99.90;;;;;;5094391;28;19956;-71
2022/07/29 06:52:27;;;;;;;;;;;16.90;99.90;;;;;;5094510;28;19951;-71
2022/07/29 06:54:54;;;;;;;;;;;16.90;99.90;;;;;;5094078;28;19984;-71
2022/07/29 06:57:20;;;;;;;;;;;17.00;99.90;;;;;;5094413;28;19912;-71
2022/07/29 06:59:46;;;;;;;;;;;17.00;99.90;;;;;;5094061;28;20284;-72
2022/07/29 07:02:11;;;;;;;;;;;17.10;99.90;;;;;;5094015;28;19904;-71
2022/07/29 07:04:37;;;;;;;;;;;17.20;99.90;;;;;;5076258;28;19912;-72
2022/07/29 07:07:02;;;;;;;;;;;17.30;99.90;;;;;;5093985;28;19904;-72
2022/07/29 07:09:28;;;;;;;;;;;17.50;99.90;;;;;;5093654;28;19910;-72
2022/07/29 07:11:53;;;;;;;;;;;17.60;99.90;;;;;;5075827;28;19912;-72
2022/07/29 07:14:19;;;;;;;;;;;17.70;99.90;;;;;;5076091;28;19904;-72
2022/07/29 07:16:44;;;;;;;;;;;17.80;99.90;;;;;;5093776;28;19904;-71
2022/07/29 07:19:10;;;;;;;;;;;17.80;99.90;;;;;;5093911;28;19908;-72
2022/07/29 07:21:35;;;;;;;;;;;17.90;99.90;;;;;;5093868;28;19927;-72
2022/07/29 07:24:01;;;;;;;;;;;17.90;99.90;;;;;;5094922;28;20344;-71
2022/07/29 07:26:27;;;;;;;;;;;17.90;99.90;;;;;;5093938;28;19908;-72
2022/07/29 07:28:52;;;;;;;;;;;17.90;99.90;;;;;;5093858;28;19934;-72
2022/07/29 07:31:18;;;;;;;;;;;18.00;99.90;;;;;;5093739;28;19908;-71
2022/07/29 07:33:43;;;;;;;;;;;18.10;99.90;;;;;;5093736;28;19908;-72
2022/07/29 07:36:09;;;;;;;;;;;18.20;99.90;;;;;;5093724;28;20280;-72
2022/07/29 07:38:35;;;;;;;;;;;18.20;99.90;;;;;;5094067;28;19904;-72
2022/07/29 07:41:00;;;;;;;;;;;18.40;99.90;;;;;;5093981;28;19911;-72
2022/07/29 07:43:26;;;;;;;;;;;18.40;99.90;;;;;;5093677;28;20348;-71
2022/07/29 07:45:51;;;;;;;;;;;18.40;99.90;;;;;;5093612;28;19910;-72
2022/07/29 07:48:17;;;;;;;;;;;18.50;99.90;;;;;;5093594;28;19998;-72
2022/07/29 07:50:43;;;;;;;;;;;18.60;99.90;;;;;;5093781;28;20003;-72
2022/07/29 07:53:09;;;;;;;;;;;18.70;99.90;;;;;;5094126;28;19910;-72
2022/07/29 07:55:39;;;;;;;;;;;18.90;99.90;;;;;;5093515;28;20340;-72
2022/07/29 07:58:04;;;;;;;;;;;19.10;99.90;;;;;;5093568;28;19915;-72
2022/07/29 08:00:30;;;;;;;;;;;19.20;99.90;;;;;;5093530;28;20276;-72
2022/07/29 08:02:55;;;;;;;;;;;19.20;99.90;;;;;;5093601;28;20302;-72
2022/07/29 08:05:21;;;;;;;;;;;19.30;99.90;;;;;;5093346;28;19919;-72
2022/07/29 08:07:46;;;;;;;;;;;19.40;99.90;;;;;;5093753;28;19908;-72
2022/07/29 08:10:13;;;;;;;;;;;19.50;99.90;;;;;;5075227;28;20310;-72
2022/07/29 08:12:38;;;;;;;;;;;19.60;99.90;;;;;;5093985;28;19904;-72
2022/07/29 08:15:06;;;;;;;;;;;19.80;99.90;;;;;;5093330;28;19994;-72
2022/07/29 08:17:32;;;;;;;;;;;19.90;99.90;;;;;;5093576;28;19986;-72
2022/07/29 08:19:57;;;;;;;;;;;20.10;99.90;;;;;;5094257;28;19962;-72
2022/07/29 08:22:23;;;;;;;;;;;20.30;99.90;;;;;;5097160;28;19904;-72
2022/07/29 08:24:55;;;;;;;;;;;20.40;99.90;;;;;;5079035;28;19911;-72
2022/07/29 08:27:21;;;;;;;;;;;20.60;99.90;;;;;;5097332;28;19904;-72
2022/07/29 08:29:47;;;;;;;;;;;20.70;99.90;;;;;;5097342;28;20249;-71
2022/07/29 08:32:12;;;;;;;;;;;20.90;99.90;;;;;;5096803;28;19908;-71
2022/07/29 08:34:38;;;;;;;;;;;21.00;99.90;;;;;;5097277;28;20367;-70
2022/07/29 08:37:04;;;;;;;;;;;21.20;99.90;;;;;;5097012;28;19946;-71
2022/07/29 08:39:29;;;;;;;;;;;21.30;99.90;;;;;;5096777;28;19912;-71
2022/07/29 08:41:55;;;;;;;;;;;21.30;99.90;;;;;;5095708;28;19910;-71
2022/07/29 08:44:21;;;;;;;;;;;21.40;99.90;;;;;;5096627;28;20415;-70
2022/07/29 08:46:48;;;;;;;;;;;21.60;99.90;;;;;;5095876;28;20022;-71
2022/07/29 08:49:13;;;;;;;;;;;21.70;99.90;;;;;;5092023;28;19923;-70
2022/07/29 08:51:39;;;;;;;;;;;21.80;99.90;;;;;;5096296;28;19908;-70
2022/07/29 08:54:06;;;;;;;;;;;21.90;99.90;;;;;;5096384;28;20448;-70
2022/07/29 08:56:32;;;;;;;;;;;22.00;99.90;;;;;;5078169;28;19927;-71
2022/07/29 08:58:58;;;;;;;;;;;22.10;99.90;;;;;;5096290;28;19904;-71
2022/07/29 09:01:24;;;;;;;;;;;22.20;99.90;;;;;;5096237;28;20378;-71
2022/07/29 09:03:51;;;;;;;;;;;22.20;99.90;;;;;;5078043;28;20314;-71
2022/07/29 09:06:18;;;;;;;;;;;22.20;99.90;;;;;;5096171;28;19912;-71
2022/07/29 09:08:44;;;;;;;;;;;22.40;99.90;;;;;;5096107;28;19908;-72
2022/07/29 09:11:11;;;;;;;;;;;22.60;99.90;;;;;;5094631;28;20307;-72
2022/07/29 09:13:37;;;;;;;;;;;22.80;98.50;;;;;;5095867;28;19910;-72
2022/07/29 09:16:03;;;;;;;;;;;23.00;98.80;;;;;;5094582;28;20003;-72
2022/07/29 09:18:37;;;;;;;;;;;23.10;98.00;;;;;;5094695;28;19918;-72
2022/07/29 09:24:01;;;;;;;;;;;23.20;97.00;;;;;;5095220;28;19957;-72
2022/07/29 09:26:30;;;;;;;;;;;23.20;96.60;;;;;;5095689;28;20421;-72
2022/07/29 09:28:56;;;;;;;;;;;23.20;97.90;;;;;;5095670;28;20318;-72
2022/07/29 09:31:31;;;;;;;;;;;23.30;98.20;;;;;;5095399;28;20348;-72
2022/07/29 09:33:59;;;;;;;;;;;23.40;97.20;;;;;;5096190;28;19953;-72
2022/07/29 09:36:25;;;;;;;;;;;23.50;95.70;;;;;;5095474;28;19911;-73
2022/07/29 09:39:00;;;;;;;;;;;23.50;95.80;;;;;;5095812;28;19904;-73
2022/07/29 09:41:27;;;;;;;;;;;23.50;96.50;;;;;;5095718;28;19904;-73
2022/07/29 09:43:59;;;;;;;;;;;23.60;96.60;;;;;;5095473;28;19904;-73
2022/07/29 09:46:25;;;;;;;;;;;23.80;96.40;;;;;;5095223;28;19908;-73
2022/07/29 09:49:07;;;;;;;;;;;23.90;95.90;;;;;;5095640;28;19911;-73
2022/07/29 09:51:32;;;;;;;;;;;24.10;95.30;;;;;;5095252;28;19914;-73
2022/07/29 09:54:00;;;;;;;;;;;24.20;94.80;;;;;;5095216;28;19986;-73
2022/07/29 09:56:43;;;;;;;;;;;24.30;95.10;;;;;;5095431;28;19904;-73
2022/07/29 09:59:10;;;;;;;;;;;24.50;94.10;;;;;;5095430;28;19904;-73
2022/07/29 10:01:36;;;;;;;;;;;24.50;93.40;;;;;;5095043;28;19904;-72
2022/07/29 10:04:02;;;;;;;;;;;24.40;92.20;;;;;;5094971;28;19904;-73
2022/07/29 10:06:28;;;;;;;;;;;24.50;93.10;;;;;;5095748;28;20003;-73
2022/07/29 10:08:53;;;;;;;;;;;24.60;93.70;;;;;;5095240;28;19904;-73
2022/07/29 10:11:19;;;;;;;;;;;24.70;92.20;;;;;;5095031;28;19930;-73
2022/07/29 10:13:46;;;;;;;;;;;24.90;92.50;;;;;;5095617;28;19927;-72
2022/07/29 10:16:12;;;;;;;;;;;25.00;89.50;;;;;;5094773;28;19904;-72
2022/07/29 10:18:39;;;;;;;;;;;25.10;88.90;;;;;;5095116;28;20352;-72
2022/07/29 10:21:04;;;;;;;;;;;25.20;89.90;;;;;;5094753;28;20417;-72
2022/07/29 10:23:30;;;;;;;;;;;25.40;85.80;;;;;;5094747;28;19955;-72
2022/07/29 10:25:56;;;;;;;;;;;25.50;82.80;;;;;;5094597;28;19908;-72
2022/07/29 10:28:21;;;;;;;;;;;25.60;82.40;;;;;;5095191;28;19904;-72
2022/07/29 10:30:50;;;;;;;;;;;25.60;81.90;;;;;;5095072;28;19973;-72
2022/07/29 10:33:22;;;;;;;;;;;25.70;80.90;;;;;;5076342;28;19926;-72
2022/07/29 10:36:06;;;;;;;;;;;25.70;79.90;;;;;;5095197;28;19955;-71
2022/07/29 10:38:48;;;;;;;;;;;25.80;78.50;;;;;;5076568;28;19904;-71
2022/07/29 10:41:34;;;;;;;;;;;25.90;76.50;;;;;;5093280;28;19993;-71
2022/07/29 10:44:12;;;;;;;;;;;26.00;78.50;;;;;;5093988;28;19904;-71
2022/07/29 10:46:39;;;;;;;;;;;26.10;77.80;;;;;;5086941;28;19903;-71
2022/07/29 10:49:04;;;;;;;;;;;26.30;78.60;;;;;;5074218;28;20245;-71
2022/07/29 10:51:49;;;;;;;;;;;26.50;80.90;;;;;;5092837;28;20021;-71
2022/07/29 10:54:15;;;;;;;;;;;26.60;74.10;;;;;;5094336;28;20056;-71
2022/07/29 10:56:41;;;;;;;;;;;26.60;73.80;;;;;;5092852;28;19911;-70
2022/07/29 10:59:21;;;;;;;;;;;26.70;72.00;;;;;;5094381;28;19904;-71
2022/07/29 11:01:47;;;;;;;;;;;26.80;70.50;;;;;;5075920;28;19911;-72
2022/07/29 11:04:13;;;;;;;;;;;26.90;70.70;;;;;;5094377;28;19908;-72
2022/07/29 11:06:57;;;;;;;;;;;26.90;65.90;;;;;;5094700;28;19918;-72
2022/07/29 11:09:23;;;;;;;;;;;26.90;65.10;;;;;;5094905;28;19992;-72
2022/07/29 11:11:48;;;;;;;;;;;27.00;65.70;;;;;;5093924;28;19951;-70
2022/07/29 11:14:14;;;;;;;;;;;27.10;66.60;;;;;;5094199;28;19940;-70
2022/07/29 11:17:00;;;;;;;;;;;27.30;66.80;;;;;;5075696;28;20374;-71
2022/07/29 11:19:25;;;;;;;;;;;27.30;65.70;;;;;;5094206;28;19926;-70
2022/07/29 11:21:52;;;;;;;;;;;27.50;67.00;;;;;;5093863;28;20427;-71
2022/07/29 11:24:28;;;;;;;;;;;27.60;66.50;;;;;;5094157;28;19904;-70
2022/07/29 11:27:08;;;;;;;;;;;27.70;65.40;;;;;;5093726;28;19904;-71
2022/07/29 11:29:54;;;;;;;;;;;27.90;66.60;;;;;;5094106;28;20261;-71
2022/07/29 11:32:20;;;;;;;;;;;28.00;61.00;;;;;;5093076;28;20398;-71
2022/07/29 11:34:47;;;;;;;;;;;28.00;62.40;;;;;;5093992;28;19908;-71
2022/07/29 11:37:12;;;;;;;;;;;28.10;61.40;;;;;;5093997;28;19904;-70
2022/07/29 11:39:42;;;;;;;;;;;28.20;59.50;;;;;;5093955;28;19911;-71
2022/07/29 11:42:19;;;;;;;;;;;28.30;58.50;;;;;;5093268;28;20291;-71
2022/07/29 11:45:00;;;;;;;;;;;28.40;64.90;;;;;;5089196;28;19995;-70
2022/07/29 11:47:27;;;;;;;;;;;28.60;60.50;;;;;;5093361;28;19951;-70
2022/07/29 11:49:53;;;;;;;;;;;28.70;61.00;;;;;;5093852;28;19966;-71
2022/07/29 11:52:19;;;;;;;;;;;28.80;61.50;;;;;;5093832;28;19922;-71
2022/07/29 11:54:46;;;;;;;;;;;28.90;61.00;;;;;;5093522;28;19912;-71
2022/07/29 11:57:13;;;;;;;;;;;29.00;60.80;;;;;;5097010;28;19916;-71
2022/07/29 11:59:40;;;;;;;;;;;29.10;60.60;;;;;;5096987;28;19961;-71
2022/07/29 12:02:06;;;;;;;;;;;29.00;57.40;;;;;;5098945;28;20360;-72
2022/07/29 12:04:32;;;;;;;;;;;28.90;59.30;;;;;;5096079;28;19908;-71
2022/07/29 12:06:58;;;;;;;;;;;28.80;58.90;;;;;;5096714;28;19908;-71
2022/07/29 12:09:24;;;;;;;;;;;28.80;58.80;;;;;;5095506;28;19911;-71
2022/07/29 12:11:55;;;;;;;;;;;28.90;59.60;;;;;;5096362;28;19920;-71
2022/07/29 12:14:29;;;;;;;3.55;1.60;;;29.10;60.60;;;;;;5096688;28;19908;-70
2022/07/29 12:16:55;;;;;;;1.87;1.30;;;29.00;60.10;;;;;;5078502;28;20364;-71
2022/07/29 12:19:21;;;;;;;;;;;28.90;61.10;;;;;;5096665;28;20232;-70
2022/07/29 12:21:51;;;;;;;;;;;28.70;61.00;;;;;;5097257;28;19995;-69
2022/07/29 12:24:17;;;;;;;;;;;28.90;63.10;;;;;;5096928;28;19958;-71
2022/07/29 12:26:49;;;;;;;;;;;28.90;59.80;;;;;;5096793;28;19919;-71
2022/07/29 12:29:17;;;;;;;2.23;1.37;;;28.60;59.70;;;;;;5096961;28;19904;-69
2022/07/29 12:31:43;;;;;;;2.70;1.60;;;28.30;61.80;;;;;;5096244;28;20228;-69
2022/07/29 12:34:11;;;;;;;1.90;1.20;;;28.10;61.40;;;;;;5096605;28;20028;-71
2022/07/29 12:36:37;;;;;;;2.80;1.50;;;28.10;64.70;;;;;;5096288;28;20486;-69
2022/07/29 12:39:03;;;;;;;;;;;28.00;61.80;;;;;;5096153;28;20063;-70
2022/07/29 12:41:29;;;;;;;;;;;27.80;59.60;;;;;;5095327;28;19904;-70
2022/07/29 12:43:55;;;;;;;;;;;27.60;62.00;;;;;;5094867;28;20019;-70
2022/07/29 12:46:20;;;;;;;2.40;1.60;;;27.50;61.70;;;;;;5094637;28;20364;-70
2022/07/29 12:48:54;;;;;;;1.95;1.10;;;27.40;62.40;;;;;;5096376;28;19904;-70
2022/07/29 12:51:34;;;;;;;2.50;1.40;;;27.30;60.70;;;;;;5096281;28;20036;-70
2022/07/29 12:54:07;;;;;;;5.90;1.75;;;27.30;63.50;;;;;;5096344;28;20031;-70
2022/07/29 12:56:33;;;;;;;2.10;1.50;;;27.40;65.40;;;;;;5096831;28;20020;-70
2022/07/29 12:58:58;;;;;;;2.05;1.30;;;27.60;61.70;;;;;;5096137;28;20065;-70
2022/07/29 13:01:27;;;;;;;3.08;1.42;;;27.80;60.80;;;;;;5096189;28;20035;-70
2022/07/29 13:04:00;;;;;;;1.83;1.20;;;27.90;61.10;;;;;;5095720;28;19904;-68
2022/07/29 13:06:40;;;;;;;4.55;1.40;;;27.90;62.50;;;;;;5096219;28;20032;-69
2022/07/29 13:09:13;;;;;;;2.70;1.30;;;27.80;60.00;;;;;;5095924;28;20028;-69
2022/07/29 13:11:47;;;;;;;2.65;1.33;;;27.80;60.50;;;;;;5095883;28;20024;-68
2022/07/29 13:14:34;;;;;;;2.42;1.40;;;27.60;60.50;;;;;;5095552;28;20012;-68
2022/07/29 13:17:04;;;;;;;4.15;1.50;;;27.40;62.20;;;;;;5070304;28;20139;-68
2022/07/29 13:20:08;;;;;;;2.42;1.50;;;27.40;61.70;;;;;;5096117;28;20024;-68
2022/07/29 13:22:34;;;;;;;3.40;1.40;;;27.50;63.40;;;;;;5093505;28;20343;-68
2022/07/29 13:25:01;;;;;;;;;;;27.70;63.00;;;;;;5095005;28;20028;-68
2022/07/29 13:27:28;;;;;;;;;;;27.80;62.10;;;;;;5094663;28;19904;-68
2022/07/29 13:29:57;;;;;;;;;;;28.10;63.50;;;;;;5095985;28;19908;-68
2022/07/29 13:32:23;;;;;;;;;;;28.30;61.10;;;;;;5095911;28;20016;-69
2022/07/29 13:34:48;;;;;;;;;;;28.50;61.30;;;;;;5095541;28;19949;-69
2022/07/29 13:37:14;;;;;;;;;;;28.50;61.80;;;;;;5095580;28;19908;-69
2022/07/29 13:39:40;;;;;;;;;;;28.60;60.30;;;;;;5095778;28;19904;-69
2022/07/29 13:42:06;;;;;;;;;;;28.70;60.20;;;;;;5095503;28;19937;-69
2022/07/29 13:44:32;;;;;;;;;;;28.80;60.80;;;;;;5095738;28;19904;-69
2022/07/29 13:46:58;;;;;;;;;;;28.70;59.60;;;;;;5095301;28;19904;-69
2022/07/29 13:49:24;;;;;;;;;;;28.70;58.30;;;;;;5095571;28;19954;-70
2022/07/29 13:51:50;;;;;;;;;;;28.70;61.30;;;;;;5095205;28;19908;-69
2022/07/29 13:54:15;;;;;;;;;;;28.80;58.20;;;;;;5095509;28;19904;-68
2022/07/29 13:56:41;;;;;;;;;;;28.80;57.40;;;;;;5095153;28;19908;-68
2022/07/29 13:59:07;;;;;;;;;;;28.80;61.00;;;;;;5095426;28;19904;-68
2022/07/29 14:01:34;;;;;;;;;;;28.90;59.40;;;;;;5095126;28;19950;-68
2022/07/29 14:03:59;;;;;;;;;;;28.90;59.40;;;;;;5095167;28;19904;-68
2022/07/29 14:06:25;;;;;;;;;;;28.80;56.60;;;;;;5094179;28;19923;-68
2022/07/29 14:08:50;;;;;;;;;;;28.80;59.60;;;;;;5077009;28;19908;-68
2022/07/29 14:11:17;;;;;;;;;;;28.90;60.10;;;;;;5094714;28;19969;-68
2022/07/29 14:13:43;;;;;;;;;;;28.90;57.40;;;;;;5094569;28;19908;-68
2022/07/29 14:16:08;;;;;;;;;;;28.70;57.50;;;;;;5095619;28;19904;-68
2022/07/29 14:18:34;;;;;;;;;;;28.70;59.90;;;;;;5094186;28;20331;-68
2022/07/29 14:20:59;;;;;;;;;;;28.80;59.60;;;;;;5094689;28;19958;-68